Time;durP1;ratioP1;P1;durP2;ratioP2;P2;SDS_P1;SDS_P2;PMS_P1;PMS_P2;Temp;Humidity;BMP_temperature;BMP_pressure;BME280_temperature;BME280_humidity;BME280_pressure;Samples;Min_cycle;Max_cycle;Signal;HPM_P1;HPM_P2
2022/06/08 00:00:22;;;;;;;2.25;2.05;;;;;;;20.07;53.73;98797.66;1735756;81;21065;-69
2022/06/08 00:02:54;;;;;;;2.30;2.10;;;;;;;20.03;53.84;98799.20;1727445;83;21234;-69
2022/06/08 00:05:22;;;;;;;4.58;1.80;;;;;;;19.97;53.98;98793.47;1739408;81;20931;-69
2022/06/08 00:07:49;;;;;;;2.30;2.10;;;;;;;19.94;54.14;98795.30;1743039;82;20927;-68
2022/06/08 00:10:15;;;;;;;2.27;2.08;;;;;;;19.89;54.28;98794.70;1740326;81;21386;-69
2022/06/08 00:12:42;;;;;;;4.00;2.22;;;;;;;19.88;54.48;98793.58;1742767;82;20911;-71
2022/06/08 00:15:10;;;;;;;2.35;2.15;;;;;;;19.87;54.57;98790.58;1731079;81;21127;-69
2022/06/08 00:17:37;;;;;;;3.85;2.15;;;;;;;19.86;54.66;98786.27;1725961;81;21512;-69
2022/06/08 00:20:05;;;;;;;4.03;2.00;;;;;;;19.84;54.72;98785.15;1726153;83;21059;-69
2022/06/08 00:22:32;;;;;;;6.45;2.20;;;;;;;19.82;54.83;98785.94;1733928;81;20962;-72
2022/06/08 00:24:59;;;;;;;5.60;2.47;;;;;;;19.80;54.97;98791.30;1741560;81;20994;-69
2022/06/08 00:27:26;;;;;;;5.03;2.25;;;;;;;19.76;55.10;98781.55;1742899;82;21250;-71
2022/06/08 00:29:53;;;;;;;3.52;2.40;;;;;;;19.75;55.26;98785.29;1742742;82;20919;-69
2022/06/08 00:32:20;;;;;;;2.58;2.37;;;;;;;19.73;55.35;98780.13;1736541;81;20983;-71
2022/06/08 00:34:48;;;;;;;2.50;2.30;;;;;;;19.72;55.41;98779.03;1733324;81;21012;-69
2022/06/08 00:37:16;;;;;;;2.62;2.40;;;;;;;19.70;55.46;98775.77;1727530;82;21023;-69
2022/06/08 00:39:43;;;;;;;3.98;2.45;;;;;;;19.69;55.49;98772.77;1727534;83;21143;-69
2022/06/08 00:42:11;;;;;;;3.72;2.20;;;;;;;19.67;55.54;98773.55;1719530;81;20950;-68
2022/06/08 00:44:45;;;;;;;3.42;2.10;;;;;;;19.64;55.63;98768.64;1739320;82;21465;-69
2022/06/08 00:47:16;;;;;;;2.33;2.22;;;;;;;19.60;55.72;98776.44;1742936;82;21450;-70
2022/06/08 00:50:04;;;;;;;2.20;2.10;;;;;;;19.56;55.79;98767.17;1741286;81;20943;-70
2022/06/08 00:52:33;;;;;;;2.37;2.10;;;;;;;19.53;55.91;98767.66;1741792;81;21121;-69
2022/06/08 00:55:03;;;;;;;2.77;1.90;;;;;;;19.51;55.93;98777.06;1689282;84;20962;-70
2022/06/08 00:57:35;;;;;;;4.00;2.20;;;;;;;19.46;55.90;98773.76;1696365;84;20952;-69
2022/06/08 01:00:07;;;;;;;2.95;2.22;;;;;;;19.42;55.96;98767.20;1724768;82;20998;-69
2022/06/08 01:02:35;;;;;;;2.27;2.08;;;;;;;19.41;55.96;98771.50;1697683;84;20942;-68
2022/06/08 01:05:32;;;;;;;4.05;2.08;;;;;;;19.38;55.88;98771.45;1720306;82;21332;-69
2022/06/08 01:08:06;;;;;;;4.83;2.27;;;;;;;19.37;55.90;98768.98;1638147;87;20926;-69
2022/06/08 01:10:44;;;;;;;2.30;2.10;;;;;;;19.33;55.96;98768.64;1660273;84;20861;-69
2022/06/08 01:13:11;;;;;;;3.70;2.47;;;;;;;19.30;56.00;98755.64;1726155;82;20875;-69
2022/06/08 01:15:40;;;;;;;2.35;1.90;;;;;;;19.29;55.98;98757.25;1711599;82;21021;-69
2022/06/08 01:18:08;;;;;;;15.28;2.85;;;;;;;19.27;56.05;98754.77;1719974;83;21261;-69
2022/06/08 01:20:35;;;;;;;2.10;1.92;;;;;;;19.26;56.08;98755.86;1716162;82;20916;-69
2022/06/08 01:23:04;;;;;;;2.30;2.08;;;;;;;19.26;56.08;98753.69;1698022;84;21133;-69
2022/06/08 01:25:37;;;;;;;4.08;2.25;;;;;;;19.22;56.13;98753.34;1718678;82;20982;-69
2022/06/08 01:28:19;;;;;;;3.15;2.00;;;;;;;19.21;56.12;98746.33;1697933;84;21437;-68
2022/06/08 01:30:56;;;;;;;3.72;1.77;;;;;;;19.21;56.20;98748.20;1710478;82;21253;-69
2022/06/08 01:34:07;;;;;;;4.78;1.98;;;;;;;19.17;56.23;98742.99;1696873;84;21445;-70
2022/06/08 01:36:46;;;;;;;2.17;2.00;;;;;;;19.14;56.26;98737.55;1694239;82;20948;-69
2022/06/08 01:39:40;;;;;;;2.40;2.20;;;;;;;19.09;56.44;98742.86;1691379;84;20916;-70
2022/06/08 01:42:15;;;;;;;2.77;2.40;;;;;;;19.05;56.55;98739.03;1696765;84;20999;-71
2022/06/08 01:48:10;;;;;;;2.30;2.10;;;;;;;18.96;56.81;98739.12;1699824;82;21406;-68
2022/06/08 01:51:00;;;;;;;2.47;1.82;;;;;;;18.92;56.94;98740.67;1741515;82;21551;-69
2022/06/08 01:54:08;;;;;;;4.25;1.95;;;;;;;18.88;57.08;98740.33;1744038;82;20962;-68
2022/06/08 01:57:00;;;;;;;5.15;2.17;;;;;;;18.87;57.17;98736.53;1744081;82;21394;-71
2022/06/08 01:59:58;;;;;;;1.98;1.80;;;;;;;18.85;57.20;98738.11;1741721;82;21255;-71
2022/06/08 02:02:31;;;;;;;2.22;2.00;;;;;;;18.84;57.30;98736.49;1744009;82;21389;-68
2022/06/08 02:05:23;;;;;;;3.47;2.20;;;;;;;18.81;57.32;98730.23;1743854;82;20978;-71
2022/06/08 02:08:31;;;;;;;1.80;1.70;;;;;;;18.79;57.39;98733.70;1727659;82;20975;-70
2022/06/08 02:11:31;;;;;;;3.02;1.98;;;;;;;18.79;57.46;98740.44;1716274;82;20919;-71
2022/06/08 02:14:04;;;;;;;2.20;2.02;;;;;;;18.77;57.45;98739.05;1743882;82;20935;-70
2022/06/08 02:16:44;;;;;;;1.77;1.55;;;;;;;18.76;57.47;98736.05;1743986;81;20879;-71
2022/06/08 02:19:34;;;;;;;1.75;1.65;;;;;;;18.74;57.47;98736.30;1730060;82;21553;-69
2022/06/08 02:22:18;;;;;;;2.10;1.80;;;;;;;18.75;57.51;98739.27;1741859;82;21006;-69
2022/06/08 02:25:09;;;;;;;2.15;2.05;;;;;;;18.77;57.45;98737.70;1744368;82;20844;-68
2022/06/08 02:27:45;;;;;;;1.70;1.60;;;;;;;18.76;57.44;98737.39;1744026;82;20935;-69
2022/06/08 02:30:23;;;;;;;1.80;1.70;;;;;;;18.79;57.43;98743.66;1727578;82;21260;-71
2022/06/08 02:35:50;;;;;;;2.10;1.90;;;;;;;18.82;57.35;98743.97;1721632;83;21014;-69
2022/06/08 02:38:20;;;;;;;7.08;2.20;;;;;;;18.84;57.31;98745.92;1721464;83;20898;-69
2022/06/08 02:40:50;;;;;;;3.17;1.67;;;;;;;18.87;57.23;98742.75;1720958;81;21917;-68
2022/06/08 02:43:34;;;;;;;2.50;2.08;;;;;;;18.90;57.19;98746.84;1721383;83;20863;-69
2022/06/08 02:46:55;;;;;;;1.65;1.55;;;;;;;18.93;57.06;98746.33;1721456;83;20990;-69
2022/06/08 02:49:23;;;;;;;1.98;1.87;;;;;;;18.97;56.99;98746.98;1649216;87;20922;-69
2022/06/08 02:51:51;;;;;;;1.75;1.65;;;;;;;18.99;56.87;98742.68;1648573;86;21037;-69
2022/06/08 02:54:27;;;;;;;1.67;1.40;;;;;;;19.04;56.71;98748.16;1676009;83;21322;-69
2022/06/08 02:57:22;;;;;;;1.80;1.70;;;;;;;19.08;56.63;98744.73;1721487;83;21493;-68
2022/06/08 03:00:12;;;;;;;1.75;1.65;;;;;;;19.14;56.40;98746.99;1721073;81;21449;-68
2022/06/08 03:02:48;;;;;;;2.27;1.77;;;;;;;19.20;56.24;98747.91;1692503;84;20982;-69
2022/06/08 03:05:27;;;;;;;3.42;1.80;;;;;;;19.23;56.09;98746.90;1692573;84;20934;-69
2022/06/08 03:08:01;;;;;;;2.40;1.85;;;;;;;19.29;55.93;98749.98;1692565;84;21274;-69
2022/06/08 03:10:33;;;;;;;2.02;1.82;;;;;;;19.38;55.76;98749.06;1737237;81;21059;-69
2022/06/08 03:13:07;;;;;;;3.25;1.82;;;;;;;19.48;55.54;98743.30;1721434;83;20990;-70
2022/06/08 03:15:35;;;;;;;1.82;1.67;;;;;;;19.57;55.35;98751.29;1721487;83;21438;-69
2022/06/08 03:18:04;;;;;;;2.65;1.87;;;;;;;19.65;55.14;98748.70;1721443;83;20950;-71
2022/06/08 03:20:30;;;;;;;2.15;1.72;;;;;;;19.76;54.87;98749.16;1720941;81;21152;-69
2022/06/08 03:22:58;;;;;;;2.58;2.33;;;;;;;19.87;54.58;98741.48;1721461;83;21072;-70
2022/06/08 03:25:28;;;;;;;4.28;2.72;;;;;;;20.02;54.23;98743.60;1721504;83;21041;-71
2022/06/08 03:27:54;;;;;;;2.62;2.02;;;;;;;20.20;53.89;98747.36;1721480;83;20942;-70
2022/06/08 03:30:22;;;;;;;4.42;2.30;;;;;;;20.39;53.50;98750.61;1718120;81;20919;-69
2022/06/08 03:32:50;;;;;;;2.55;2.25;;;;;;;20.57;53.00;98749.74;1699385;82;21270;-69
2022/06/08 03:35:17;;;;;;;2.77;1.67;;;;;;;20.71;52.64;98748.83;1712273;83;20931;-70
2022/06/08 03:37:45;;;;;;;1.92;1.50;;;;;;;20.97;52.14;98747.22;1712316;83;20900;-72
2022/06/08 03:40:13;;;;;;;5.28;1.80;;;;;;;21.44;51.07;98753.66;1712141;82;21515;-70
2022/06/08 03:42:41;;;;;;;1.75;1.65;;;;;;;21.96;50.01;98750.58;1713890;83;20987;-69
2022/06/08 03:45:10;;;;;;;1.67;1.57;;;;;;;22.46;48.92;98751.41;1713868;83;21808;-70
2022/06/08 03:47:43;;;;;;;1.87;1.70;;;;;;;22.80;47.91;98754.55;1713902;83;20986;-69
2022/06/08 03:50:13;;;;;;;2.58;1.62;;;;;;;;;;1713343;82;20991;-69
2022/06/08 03:52:43;;;;;;;2.08;1.60;;;;;;;23.72;45.44;98750.91;1712271;83;20943;-69
2022/06/08 03:55:09;;;;;;;3.60;1.70;;;;;;;24.05;44.38;98754.38;1712374;83;20994;-68
2022/06/08 03:57:36;;;;;;;2.10;1.70;;;;;;;24.46;43.38;98749.13;1712480;83;21252;-69
2022/06/08 04:00:06;;;;;;;4.58;1.52;;;;;;;24.95;42.55;98750.56;1715361;82;21401;-69
2022/06/08 04:02:34;;;;;;;2.27;1.70;;;;;;;25.44;41.72;98750.53;1721064;82;20926;-72
2022/06/08 04:05:02;;;;;;;1.95;1.82;;;;;;;25.94;40.55;98747.92;1723706;83;20896;-69
2022/06/08 04:07:29;;;;;;;1.70;1.37;;;;;;;26.46;39.63;98743.61;1723903;83;20947;-72
2022/06/08 04:09:56;;;;;;;2.20;1.50;;;;;;;26.93;38.84;98743.00;1712916;82;21247;-71
2022/06/08 04:12:25;;;;;;;3.90;1.70;;;;;;;27.33;38.03;98744.89;1712497;82;20895;-71
2022/06/08 04:14:52;;;;;;;1.52;1.40;;;;;;;27.70;37.11;98736.67;1713798;83;20935;-70
2022/06/08 04:17:19;;;;;;;2.50;1.45;;;;;;;27.81;36.66;98735.39;1713784;83;20923;-68
2022/06/08 04:19:50;;;;;;;1.92;1.37;;;;;;;27.95;36.76;98734.84;1713224;82;21016;-70
2022/06/08 04:22:19;;;;;;;2.42;1.37;;;;;;;28.51;35.96;98736.55;1712077;82;22082;-70
2022/06/08 04:24:45;;;;;;;2.62;1.60;;;;;;;29.17;34.84;98735.97;1713981;83;20863;-69
2022/06/08 04:27:13;;;;;;;2.77;1.82;;;;;;;29.77;33.86;98730.97;1713817;83;20995;-69
2022/06/08 04:29:41;;;;;;;2.15;1.30;;;;;;;30.15;32.87;98733.55;1714128;82;21012;-70
2022/06/08 04:32:09;;;;;;;1.40;1.30;;;;;;;30.48;32.15;98727.97;1713597;81;20986;-72
2022/06/08 04:34:39;;;;;;;1.75;1.20;;;;;;;30.87;31.65;98734.55;1713971;82;21449;-69
2022/06/08 04:37:06;;;;;;;2.22;1.50;;;;;;;31.32;31.12;98741.94;1744088;82;20908;-69
2022/06/08 04:39:35;;;;;;;2.37;1.80;;;;;;;31.71;30.17;98726.10;1742669;81;20894;-68
2022/06/08 04:42:03;;;;;;;1.85;1.50;;;;;;;31.89;29.65;98726.86;1743886;82;20962;-69
2022/06/08 04:44:33;;;;;;;1.52;1.42;;;;;;;32.17;29.60;98727.31;1740414;82;20888;-68
2022/06/08 04:47:01;;;;;;;2.65;1.45;;;;;;;32.67;28.88;98718.58;1743048;82;21208;-70
2022/06/08 04:49:28;;;;;;;5.10;1.87;;;;;;;32.85;28.67;98716.55;1713580;82;21599;-69
2022/06/08 04:51:55;;;;;;;2.22;1.42;;;;;;;32.98;28.21;98721.56;1712041;82;21407;-70
2022/06/08 04:54:22;;;;;;;1.85;1.30;;;;;;;33.28;27.83;98728.08;1713070;82;20947;-70
2022/06/08 04:56:51;;;;;;;2.27;1.47;;;;;;;33.65;27.21;98724.94;1743309;82;20991;-70
2022/06/08 04:59:19;;;;;;;1.57;1.47;;;;;;;33.89;26.75;98724.20;1743966;82;21263;-70
2022/06/08 05:01:47;;;;;;;1.50;1.40;;;;;;;34.28;26.18;98722.23;1715506;81;21571;-69
2022/06/08 05:04:15;;;;;;;2.22;1.45;;;;;;;34.77;25.69;98713.96;1712568;82;20939;-70
2022/06/08 05:06:42;;;;;;;1.62;1.25;;;;;;;35.06;25.09;98717.29;1712183;82;20980;-70
2022/06/08 05:09:10;;;;;;;1.42;1.20;;;;;;;35.22;24.91;98712.61;1711943;82;21076;-71
2022/06/08 05:11:38;;;;;;;2.45;1.60;;;;;;;35.51;24.95;98710.69;1712087;82;22074;-70
2022/06/08 05:14:07;;;;;;;3.15;1.10;;;;;;;36.00;24.24;98714.02;1712421;82;20939;-70
2022/06/08 05:16:35;;;;;;;3.30;1.50;;;;;;;36.06;23.94;98718.95;1730795;82;20856;-70
2022/06/08 05:19:02;;;;;;;1.57;1.47;;;;;;;36.32;23.66;98712.30;1737515;82;21017;-70
2022/06/08 05:21:31;;;;;;;2.55;1.47;;;;;;;36.37;23.28;98715.41;1711378;82;20942;-70
2022/06/08 05:23:57;;;;;;;2.00;1.37;;;;;;;36.58;23.09;98705.45;1716515;82;21290;-71
2022/06/08 05:26:34;;;;;;;3.47;1.22;;;;;;;36.75;22.80;98711.98;1712187;83;20931;-71
2022/06/08 05:29:03;;;;;;;1.90;1.35;;;;;;;36.80;22.73;98708.35;1712327;82;21044;-71
2022/06/08 05:31:31;;;;;;;1.82;1.37;;;;;;;36.92;22.48;98708.83;1701340;82;21057;-70
2022/06/08 05:33:58;;;;;;;1.50;1.40;;;;;;;36.71;22.72;98708.34;1706342;82;21018;-66
2022/06/08 05:36:27;;;;;;;2.27;1.35;;;;;;;37.11;22.43;98711.63;1715605;83;21171;-71
2022/06/08 05:38:54;;;;;;;2.12;1.40;;;;;;;37.45;22.03;98712.77;1691496;82;20983;-68
2022/06/08 05:41:22;;;;;;;1.62;1.50;;;;;;;37.78;21.90;98712.24;1672418;85;21439;-68
2022/06/08 05:43:49;;;;;;;1.60;1.30;;;;;;;38.28;21.56;98714.16;1684829;84;21477;-72
2022/06/08 05:46:16;;;;;;;6.25;2.00;;;;;;;38.22;21.53;98712.08;1675852;84;21105;-72
2022/06/08 05:48:44;;;;;;;2.52;1.30;;;;;;;38.42;21.22;98715.60;1702588;84;21278;-72
2022/06/08 05:51:12;;;;;;;3.65;1.50;;;;;;;38.47;20.86;98721.65;1686922;85;21607;-72
2022/06/08 05:53:40;;;;;;;5.28;1.50;;;;;;;38.76;20.46;98725.12;1702486;83;20954;-71
2022/06/08 05:56:06;;;;;;;2.50;1.37;;;;;;;39.06;20.07;98716.02;1669394;84;21065;-71
2022/06/08 05:58:36;;;;;;;1.75;1.30;;;;;;;39.13;20.16;98718.88;1661566;84;21046;-71
2022/06/08 06:01:03;;;;;;;4.47;1.27;;;;;;;39.12;20.14;98715.88;1660430;86;21138;-71
2022/06/08 06:03:30;;;;;;;2.12;1.15;;;;;;;39.32;19.98;98724.31;1633236;86;20962;-74
2022/06/08 06:05:57;;;;;;;4.25;1.12;;;;;;;39.40;19.62;98724.61;1666528;84;20919;-71
2022/06/08 06:08:24;;;;;;;2.87;1.30;;;;;;;39.42;19.71;98733.41;1662115;84;20954;-72
2022/06/08 06:10:56;;;;;;;1.77;1.30;;;;;;;39.54;19.37;98723.41;1662019;86;21115;-69
2022/06/08 06:13:28;;;;;;;3.37;1.30;;;;;;;39.66;19.63;98722.39;1691072;84;21248;-71
2022/06/08 06:15:58;;;;;;;3.15;1.47;;;;;;;40.04;19.22;98728.40;1689396;84;20978;-71
2022/06/08 06:18:28;;;;;;;2.67;1.10;;;;;;;40.34;19.19;98725.47;1661910;84;21515;-71
2022/06/08 06:21:00;;;;;;;2.67;1.10;;;;;;;41.02;18.42;98730.98;1678799;84;20948;-69
2022/06/08 06:23:38;;;;;;;2.60;1.20;;;;;;;41.49;18.10;98735.03;1683390;84;20951;-71
2022/06/08 06:26:06;;;;;;;1.67;1.50;;;;;;;41.90;17.69;98721.62;1716655;83;21775;-70
2022/06/08 06:28:54;;;;;;;2.12;1.30;;;;;;;42.03;17.68;98717.25;1701267;84;20939;-69
2022/06/08 06:31:43;;;;;;;1.60;1.10;;;;;;;42.34;17.09;98719.30;1680666;84;21212;-70
2022/06/08 06:34:13;;;;;;;5.35;1.17;;;;;;;42.26;16.87;98714.13;1637518;87;21065;-70
2022/06/08 06:36:40;;;;;;;5.87;1.52;;;;;;;42.06;16.66;98717.05;1665891;84;21019;-73
2022/06/08 06:39:06;;;;;;;2.90;1.12;;;;;;;42.26;16.74;98721.92;1661356;86;21194;-74
2022/06/08 06:41:34;;;;;;;4.58;1.22;;;;;;;42.32;16.21;98717.51;1652167;85;20944;-75
2022/06/08 06:44:02;;;;;;;1.52;1.30;;;;;;;42.34;16.39;98722.09;1653043;85;20952;-74
2022/06/08 06:46:30;;;;;;;4.28;1.42;;;;;;;42.49;16.54;98719.30;1650239;85;21486;-74
2022/06/08 06:48:59;;;;;;;2.27;1.30;;;;;;;42.79;16.41;98717.70;1646557;86;21011;-75
2022/06/08 06:51:25;;;;;;;1.92;1.40;;;;;;;43.36;16.13;98715.58;1650525;87;21219;-72
2022/06/08 06:53:52;;;;;;;2.77;1.20;;;;;;;43.42;16.05;98713.97;1650258;87;20999;-71
2022/06/08 06:56:19;;;;;;;2.62;1.20;;;;;;;43.66;15.87;98721.24;1650064;85;20975;-68
2022/06/08 06:58:52;;;;;;;2.80;0.80;;;;;;;43.60;15.56;98718.88;1650017;85;20960;-73
2022/06/08 07:01:20;;;;;;;1.60;0.90;;;;;;;43.07;15.42;98714.08;1650491;87;21564;-73
2022/06/08 07:03:49;;;;;;;1.87;1.05;;;;;;;42.59;15.73;98714.33;1650567;87;21263;-72
2022/06/08 07:06:15;;;;;;;1.27;1.17;;;;;;;42.15;16.02;98716.11;1650259;87;20975;-73
2022/06/08 07:08:44;;;;;;;1.42;1.20;;;;;;;42.34;15.91;98719.30;1650688;86;21426;-71
2022/06/08 07:14:00;;;;;;;1.75;0.90;;;;;;;42.53;15.85;98721.55;1650550;87;21019;-72
2022/06/08 07:16:27;;;;;;;1.07;0.98;;;;;;;42.76;15.23;98706.54;1650535;87;21109;-75
2022/06/08 07:18:54;;;;;;;1.25;0.88;;;;;;;42.62;14.64;98712.94;1650399;87;20969;-72
2022/06/08 07:21:20;;;;;;;2.70;1.07;;;;;;;42.95;14.35;98710.30;1650613;87;21007;-73
2022/06/08 07:23:47;;;;;;;2.27;1.22;;;;;;;42.92;14.63;98707.71;1650453;87;20959;-72
2022/06/08 07:26:14;;;;;;;3.83;1.00;;;;;;;42.70;15.25;98712.33;1650494;87;21541;-74
2022/06/08 07:28:40;;;;;;;1.57;1.17;;;;;;;42.10;16.14;98708.90;1650480;87;21873;-73
2022/06/08 07:31:07;;;;;;;2.60;0.90;;;;;;;42.51;16.37;98714.11;1650568;87;21437;-72
2022/06/08 07:33:34;;;;;;;1.25;0.88;;;;;;;42.71;14.97;98727.92;1652435;86;21043;-73
2022/06/08 07:36:02;;;;;;;1.60;1.17;;;;;;;42.47;14.61;98716.92;1711925;83;21504;-73
2022/06/08 07:38:28;;;;;;;1.92;1.22;;;;;;;42.49;14.98;98719.30;1711905;83;21125;-73
2022/06/08 07:40:56;;;;;;;1.40;1.02;;;;;;;43.11;15.01;98711.25;1711935;83;21148;-73
2022/06/08 07:43:23;;;;;;;1.20;0.90;;;;;;;43.39;15.06;98708.37;1712037;83;20907;-72
2022/06/08 07:45:50;;;;;;;1.42;0.80;;;;;;;43.81;13.11;98709.58;1711934;83;21063;-74
2022/06/08 07:51:02;;;;;;;;;;;;;;;43.99;13.14;98710.26;1714814;83;20955;-74
2022/06/08 07:53:29;;;;;;;2.40;1.02;;;;;;;44.22;12.76;98718.75;1711911;83;21183;-73
2022/06/08 07:55:56;;;;;;;1.25;0.93;;;;;;;44.38;12.33;98715.59;1711932;83;21473;-70
2022/06/08 07:58:26;;;;;;;4.75;1.20;;;;;;;44.39;12.63;98717.80;1711957;83;21450;-73
2022/06/08 08:00:53;;;;;;;1.25;1.12;;;;;;;44.72;12.40;98723.52;1711851;83;21671;-73
2022/06/08 08:03:20;;;;;;;1.25;0.90;;;;;;;44.60;12.19;98725.45;1711931;83;20947;-72
2022/06/08 08:05:46;;;;;;;3.42;1.10;;;;;;;44.26;12.40;98716.10;1711960;83;21236;-73
2022/06/08 08:08:15;;;;;;;1.92;1.07;;;;;;;44.22;12.84;98722.35;1711860;83;20887;-72
2022/06/08 08:10:42;;;;;;;1.47;1.20;;;;;;;44.37;12.73;98718.81;1712008;83;20984;-73
2022/06/08 08:13:08;;;;;;;2.02;1.00;;;;;;;44.05;13.14;98719.03;1714987;83;20951;-71
2022/06/08 08:15:36;;;;;;;1.40;0.80;;;;;;;43.28;13.60;98714.02;1714290;83;20956;-72
2022/06/08 08:18:03;;;;;;;1.85;1.12;;;;;;;42.78;14.02;98720.31;1712020;83;21235;-74
2022/06/08 08:20:30;;;;;;;1.85;1.10;;;;;;;42.39;14.73;98718.92;1711993;83;21002;-72
2022/06/08 08:22:57;;;;;;;2.62;1.00;;;;;;;43.04;14.13;98721.88;1712121;83;20992;-72
2022/06/08 08:25:24;;;;;;;1.67;1.52;;;;;;;43.60;13.34;98707.67;1712092;83;21008;-71
2022/06/08 08:27:52;;;;;;;1.30;0.90;;;;;;;43.73;12.95;98722.63;1712142;82;20940;-73
2022/06/08 08:30:22;;;;;;;1.82;1.10;;;;;;;43.53;12.98;98702.12;1712012;83;21612;-75
2022/06/08 08:32:49;;;;;;;0.70;0.70;;;;;;;43.51;13.46;98703.13;1709460;83;20945;-74
2022/06/08 08:35:17;;;;;;;2.42;0.98;;;;;;;43.95;12.81;98715.11;1706582;84;21537;-73
2022/06/08 08:37:45;;;;;;;1.10;0.98;;;;;;;44.23;11.71;98697.91;1707050;84;20908;-72
2022/06/08 08:40:46;;;;;;;2.42;0.82;;;;;;;44.25;11.94;98706.72;1706776;84;21545;-73
2022/06/08 08:43:19;;;;;;;0.98;0.82;;;;;;;43.82;12.10;98697.78;1706703;84;21961;-75
2022/06/08 08:45:58;;;;;;;1.20;0.80;;;;;;;43.17;12.60;98706.25;1706751;84;20928;-73
2022/06/08 08:48:29;;;;;;;1.70;1.40;;;;;;;43.57;12.41;98699.28;1697282;84;20943;-74
2022/06/08 08:51:06;;;;;;;2.67;1.17;;;;;;;43.11;12.57;98698.06;1706503;84;20919;-73
2022/06/08 08:53:56;;;;;;;3.35;1.27;;;;;;;42.48;13.16;98698.94;1706704;84;20955;-74
2022/06/08 08:56:37;;;;;;;1.40;0.82;;;;;;;41.82;13.58;98722.83;1703096;84;21241;-74
2022/06/08 08:59:14;;;;;;;2.83;1.00;;;;;;;41.49;13.66;98709.92;1706674;84;20888;-73
2022/06/08 09:01:47;;;;;;;1.57;0.82;;;;;;;42.01;13.51;98697.89;1706757;84;20892;-74
2022/06/08 09:04:33;;;;;;;4.42;0.70;;;;;;;42.11;13.53;98697.91;1706637;84;20967;-72
2022/06/08 09:07:15;;;;;;;1.17;1.05;;;;;;;41.95;14.05;98691.92;1706648;84;21149;-74
2022/06/08 09:09:42;;;;;;;2.33;0.90;;;;;;;42.54;13.40;98688.18;1706739;84;21085;-73
2022/06/08 09:12:14;;;;;;;0.88;0.80;;;;;;;42.75;13.76;98676.37;1706841;84;21090;-74
2022/06/08 09:14:51;;;;;;;1.15;0.75;;;;;;;42.56;13.71;98673.20;1702557;83;21418;-75
2022/06/08 09:17:35;;;;;;;5.33;1.00;;;;;;;42.68;13.89;98674.19;1706733;84;20927;-73
2022/06/08 09:20:06;;;;;;;2.02;0.70;;;;;;;42.24;14.01;98671.20;1706699;84;20959;-72
2022/06/08 09:22:34;;;;;;;1.37;0.70;;;;;;;41.50;14.49;98682.81;1703527;84;21174;-72
2022/06/08 09:25:26;;;;;;;2.55;1.00;;;;;;;40.86;14.36;98673.33;1702013;84;20912;-73
2022/06/08 09:27:55;;;;;;;1.27;0.72;;;;;;;40.36;14.46;98675.72;1706685;84;20970;-74
2022/06/08 09:30:31;;;;;;;2.08;0.70;;;;;;;40.16;14.58;98669.39;1706678;84;21537;-72
2022/06/08 09:33:09;;;;;;;1.07;0.93;;;;;;;40.26;14.60;98668.09;1705602;83;21082;-76
2022/06/08 09:35:39;;;;;;;0.80;0.75;;;;;;;40.01;15.08;98674.83;1676575;84;21148;-75
2022/06/08 09:38:11;;;;;;;2.52;1.05;;;;;;;40.63;14.51;98669.38;1706764;84;20864;-72
2022/06/08 09:41:17;;;;;;;1.52;0.75;;;;;;;40.41;14.79;98684.34;1707141;84;20915;-73
2022/06/08 09:44:06;;;;;;;0.68;0.68;;;;;;;40.38;14.71;98663.62;1706671;84;20947;-75
2022/06/08 09:53:07;;;;;;;1.05;0.85;;;;;;;38.82;15.66;98678.35;1706729;84;21047;-74
2022/06/08 09:56:17;;;;;;;3.35;1.27;;;;;;;38.36;16.74;98666.50;1706313;84;20979;-75
2022/06/08 09:59:16;;;;;;;7.55;1.15;;;;;;;37.73;16.69;98652.88;1628576;87;20974;-74
2022/06/08 10:01:56;;;;;;;2.17;1.22;;;;;;;36.94;17.62;98644.97;1645320;87;21053;-71
2022/06/08 10:04:45;;;;;;;1.10;0.95;;;;;;;36.20;18.48;98644.58;1693988;84;20865;-71
2022/06/08 10:07:22;;;;;;;1.65;0.98;;;;;;;35.67;19.49;98654.83;1706739;84;20947;-75
2022/06/08 10:10:03;;;;;;;2.98;0.88;;;;;;;35.34;19.71;98660.63;1706610;84;21035;-73
2022/06/08 10:12:58;;;;;;;1.52;0.90;;;;;;;34.94;19.37;98650.17;1706449;84;21026;-73
2022/06/08 10:15:48;;;;;;;1.20;0.95;;;;;;;34.31;20.41;98648.38;1706897;84;20897;-77
2022/06/08 10:18:29;;;;;;;1.27;1.00;;;;;;;33.66;20.65;98652.67;1706218;84;21852;-72
2022/06/08 10:21:13;;;;;;;1.10;1.00;;;;;;;33.25;20.97;98645.26;1706702;84;20868;-73
2022/06/08 10:23:44;;;;;;;1.22;1.12;;;;;;;32.99;21.82;98648.21;1706769;84;21501;-73
2022/06/08 10:26:44;;;;;;;2.95;1.25;;;;;;;32.67;21.34;98655.84;1706655;84;20911;-74
2022/06/08 10:29:35;;;;;;;1.80;1.10;;;;;;;32.44;21.23;98647.03;1706736;84;20951;-73
2022/06/08 10:32:23;;;;;;;1.85;1.10;;;;;;;32.15;21.70;98649.78;1706659;84;21906;-73
2022/06/08 10:34:54;;;;;;;1.37;1.20;;;;;;;31.90;23.12;98639.67;1702437;83;20947;-74
2022/06/08 10:37:26;;;;;;;0.90;0.90;;;;;;;31.79;22.81;98632.36;1702273;84;21050;-73
2022/06/08 10:39:52;;;;;;;1.87;1.30;;;;;;;31.72;22.53;98630.13;1702186;84;20980;-74
2022/06/08 10:42:40;;;;;;;2.12;1.52;;;;;;;31.71;22.95;98627.13;1702315;84;21583;-72
2022/06/08 10:45:30;;;;;;;1.27;1.17;;;;;;;31.62;23.10;98644.80;1702374;84;21178;-72
2022/06/08 10:48:18;;;;;;;1.27;1.17;;;;;;;31.51;22.96;98636.09;1702325;84;20892;-72
2022/06/08 10:50:48;;;;;;;2.98;1.12;;;;;;;31.41;22.94;98637.78;1702384;84;20944;-73
2022/06/08 10:56:41;;;;;;;2.52;1.12;;;;;;;31.39;23.21;98626.28;1702402;84;20889;-75
2022/06/08 10:59:14;;;;;;;1.20;1.10;;;;;;;31.41;22.86;98624.60;1702631;84;21653;-72
2022/06/08 11:02:03;;;;;;;5.92;1.50;;;;;;;31.35;23.37;98634.14;1701989;84;21553;-72
2022/06/08 11:04:43;;;;;;;1.67;1.02;;;;;;;31.29;24.00;98629.97;1702400;84;20999;-72
2022/06/08 11:07:17;;;;;;;1.60;1.50;;;;;;;31.12;24.32;98630.23;1702168;84;21008;-72
2022/06/08 11:09:53;;;;;;;1.35;1.22;;;;;;;30.98;24.37;98631.51;1702348;84;20893;-71
2022/06/08 11:12:36;;;;;;;4.95;1.25;;;;;;;30.94;24.33;98626.44;1702302;84;21564;-75
2022/06/08 11:15:28;;;;;;;1.87;1.07;;;;;;;30.97;24.24;98617.55;1691633;84;21529;-72
2022/06/08 11:18:03;;;;;;;1.47;1.20;;;;;;;30.95;24.44;98626.09;1696350;84;20948;-74
2022/06/08 11:20:38;;;;;;;1.33;1.23;;;;;;;30.84;24.92;98635.78;1675059;84;20908;-74
2022/06/08 11:23:28;;;;;;;2.45;1.32;;;;;;;30.73;25.43;98627.61;1702406;84;20994;-72
2022/06/08 11:26:23;;;;;;;1.67;1.57;;;;;;;30.54;25.16;98630.66;1702406;84;21454;-75
2022/06/08 11:29:00;;;;;;;3.37;1.65;;;;;;;30.40;25.91;98633.30;1702474;84;20940;-74
2022/06/08 11:31:32;;;;;;;2.30;1.27;;;;;;;30.39;25.40;98617.96;1702715;84;20943;-72
2022/06/08 11:34:31;;;;;;;1.15;1.05;;;;;;;30.41;24.99;98615.14;1699467;84;20968;-73
2022/06/08 11:37:09;;;;;;;2.40;1.10;;;;;;;30.41;25.16;98608.28;1697733;84;20904;-73
2022/06/08 11:39:57;;;;;;;2.67;1.30;;;;;;;30.44;25.70;98613.13;1698875;84;21246;-72
2022/06/08 11:42:46;;;;;;;2.05;1.47;;;;;;;30.45;25.55;98622.95;1697397;84;21546;-73
2022/06/08 11:45:24;;;;;;;4.97;1.60;;;;;;;30.44;25.45;98615.88;1696884;84;21518;-74
2022/06/08 11:47:59;;;;;;;3.22;1.52;;;;;;;30.45;25.89;98613.36;1696640;84;20916;-73
2022/06/08 11:50:43;;;;;;;2.75;1.50;;;;;;;30.42;25.27;98604.98;1697190;84;21490;-74
2022/06/08 11:53:40;;;;;;;5.00;1.52;;;;;;;30.40;25.03;98604.50;1697069;84;21090;-73
2022/06/08 11:56:29;;;;;;;1.60;1.50;;;;;;;30.33;26.01;98618.64;1696922;84;21518;-74
2022/06/08 11:58:59;;;;;;;2.08;1.20;;;;;;;30.20;25.69;98614.09;1696797;84;21446;-72
2022/06/08 12:01:30;;;;;;;1.60;1.40;;;;;;;30.09;26.27;98605.12;1696878;84;21431;-76
2022/06/08 12:04:05;;;;;;;2.20;1.10;;;;;;;30.10;25.96;98599.86;1697131;84;20896;-72
2022/06/08 12:06:35;;;;;;;1.82;1.40;;;;;;;30.10;25.94;98597.94;1696869;84;21135;-72
2022/06/08 12:09:13;;;;;;;1.35;1.25;;;;;;;30.09;26.54;98597.67;1696852;84;20988;-74
2022/06/08 12:11:42;;;;;;;1.82;1.25;;;;;;;30.07;27.53;98592.27;1696968;83;20983;-72
2022/06/08 12:14:33;;;;;;;1.65;1.50;;;;;;;30.02;27.07;98591.86;1697032;84;21403;-72
2022/06/08 12:17:09;;;;;;;2.37;1.20;;;;;;;29.96;27.03;98600.79;1696979;84;21046;-75
2022/06/08 12:19:52;;;;;;;4.07;1.60;;;;;;;29.88;27.53;98593.89;1702574;83;21245;-72
2022/06/08 12:22:29;;;;;;;2.20;1.37;;;;;;;29.85;27.37;98595.34;1696859;84;21467;-72
2022/06/08 12:25:21;;;;;;;2.90;1.20;;;;;;;29.85;27.45;98588.48;1696911;84;20924;-75
2022/06/08 12:28:12;;;;;;;3.05;1.40;;;;;;;29.76;27.14;98597.78;1696982;84;21019;-73